Time;durP1;ratioP1;P1;durP2;ratioP2;P2;SDS_P1;SDS_P2;PMS_P1;PMS_P2;Temp;Humidity;BMP_temperature;BMP_pressure;BME280_temperature;BME280_humidity;BME280_pressure;Samples;Min_cycle;Max_cycle;Signal;HPM_P1;HPM_P2
2023/08/27 00:02:25;;;;;;;12.20;11.40;;;16.10;99.90;;;;;;5004457;28;20197;-78
2023/08/27 00:04:53;;;;;;;13.20;12.30;;;16.10;99.90;;;;;;5002249;28;20252;-77
2023/08/27 00:07:20;;;;;;;13.20;12.30;;;16.20;99.90;;;;;;5003399;28;20203;-78
2023/08/27 00:09:47;;;;;;;14.13;12.87;;;16.10;99.90;;;;;;5009338;28;20255;-78
2023/08/27 00:12:13;;;;;;;12.93;12.03;;;16.10;99.90;;;;;;5010588;28;20699;-78
2023/08/27 00:14:41;;;;;;;13.20;12.20;;;16.20;99.90;;;;;;5002472;28;20622;-78
2023/08/27 00:17:08;;;;;;;15.37;14.27;;;16.20;99.90;;;;;;5005758;28;20215;-78
2023/08/27 00:19:35;;;;;;;13.83;12.93;;;16.20;99.90;;;;;;5001935;28;20286;-78
2023/08/27 00:22:03;;;;;;;13.97;13.07;;;16.20;99.90;;;;;;5003779;28;20281;-78
2023/08/27 00:24:32;;;;;;;14.80;13.80;;;16.30;99.90;;;;;;5003238;28;20205;-78
2023/08/27 00:26:58;;;;;;;16.13;15.03;;;16.30;99.90;;;;;;5002142;28;20196;-78
2023/08/27 00:29:25;;;;;;;15.83;14.73;;;16.30;99.90;;;;;;5002525;28;20228;-78
2023/08/27 00:31:52;;;;;;;15.37;14.20;;;16.30;99.90;;;;;;5003758;28;20271;-78
2023/08/27 00:34:19;;;;;;;14.47;13.50;;;16.30;99.90;;;;;;5005564;28;20682;-78
2023/08/27 00:36:46;;;;;;;14.10;13.20;;;16.30;99.90;;;;;;5002218;28;20207;-78
2023/08/27 00:39:14;;;;;;;14.03;13.03;;;16.30;99.90;;;;;;5001730;28;20220;-78
2023/08/27 00:41:41;;;;;;;13.50;12.60;;;16.30;99.90;;;;;;5000572;28;20205;-78
2023/08/27 00:44:08;;;;;;;14.47;13.50;;;16.40;99.90;;;;;;5001815;28;20207;-78
2023/08/27 00:46:35;;;;;;;13.97;12.97;;;16.40;99.90;;;;;;5002094;28;20207;-78
2023/08/27 00:49:02;;;;;;;13.67;12.77;;;16.50;99.90;;;;;;5008666;28;20221;-78
2023/08/27 00:51:30;;;;;;;13.73;12.83;;;16.50;99.90;;;;;;5010632;28;20691;-78
2023/08/27 00:53:58;;;;;;;12.50;11.60;;;16.50;99.90;;;;;;5006174;28;20208;-78
2023/08/27 00:56:26;;;;;;;13.23;12.23;;;16.50;99.90;;;;;;5005514;28;20203;-78
2023/08/27 00:58:54;;;;;;;13.40;12.43;;;16.50;99.90;;;;;;5005858;28;20216;-78
2023/08/27 01:01:23;;;;;;;13.13;12.13;;;16.60;99.90;;;;;;5005940;28;20291;-78
2023/08/27 01:03:50;;;;;;;14.43;13.33;;;16.60;99.90;;;;;;5007061;28;20200;-79
2023/08/27 01:06:17;;;;;;;13.83;12.93;;;16.60;99.90;;;;;;5008889;28;20277;-78
2023/08/27 01:08:54;;;;;;;14.13;13.20;;;16.60;99.90;;;;;;5009856;28;20204;-78
2023/08/27 01:11:30;;;;;;;14.23;13.13;;;16.60;99.90;;;;;;5004671;28;20303;-78
2023/08/27 01:14:02;;;;;;;14.10;13.10;;;16.60;99.90;;;;;;5006413;28;20192;-78
2023/08/27 01:16:30;;;;;;;14.33;13.33;;;16.60;99.90;;;;;;5005418;28;20260;-78
2023/08/27 01:18:59;;;;;;;13.77;12.87;;;16.60;99.90;;;;;;4998333;28;20217;-78
2023/08/27 01:21:28;;;;;;;14.67;13.50;;;16.60;99.90;;;;;;5003482;28;20672;-78
2023/08/27 01:23:55;;;;;;;14.10;13.20;;;16.60;99.90;;;;;;5013288;28;20196;-78
2023/08/27 01:26:27;;;;;;;15.47;14.47;;;16.60;99.90;;;;;;5003640;28;20193;-77
2023/08/27 01:29:01;;;;;;;15.67;14.27;;;16.60;99.90;;;;;;5005049;28;20715;-78
2023/08/27 01:31:34;;;;;;;14.93;13.93;;;16.60;99.90;;;;;;5001793;28;20877;-78
2023/08/27 01:34:05;;;;;;;13.73;12.73;;;16.60;99.90;;;;;;5006198;28;20235;-78
2023/08/27 01:36:35;;;;;;;14.40;13.40;;;16.60;99.90;;;;;;5004989;28;20263;-78
2023/08/27 01:39:03;;;;;;;14.67;13.77;;;16.70;99.90;;;;;;5013191;28;20220;-79
2023/08/27 01:41:30;;;;;;;14.87;13.87;;;16.70;99.90;;;;;;5009823;28;20201;-79
2023/08/27 01:43:57;;;;;;;15.00;13.90;;;16.70;99.90;;;;;;5005405;28;20205;-79
2023/08/27 01:46:24;;;;;;;16.23;14.80;;;16.70;99.90;;;;;;5005751;28;20829;-78
2023/08/27 01:48:51;;;;;;;16.03;14.93;;;16.70;99.90;;;;;;5012069;28;20303;-78
2023/08/27 01:51:17;;;;;;;14.97;14.00;;;16.80;99.90;;;;;;5004673;28;20628;-78
2023/08/27 01:53:46;;;;;;;16.90;15.63;;;16.80;99.90;;;;;;5005092;28;20201;-78
2023/08/27 01:56:13;;;;;;;15.70;14.60;;;16.80;99.90;;;;;;5004948;28;20667;-78
2023/08/27 01:58:40;;;;;;;15.53;14.43;;;16.80;99.90;;;;;;5018443;28;20590;-78
2023/08/27 02:01:07;;;;;;;15.60;14.40;;;16.70;99.90;;;;;;5012744;28;20219;-78
2023/08/27 02:03:34;;;;;;;14.87;13.87;;;16.70;99.90;;;;;;5007532;28;20259;-78
2023/08/27 02:06:00;;;;;;;15.67;14.53;;;16.70;99.90;;;;;;4999889;28;20193;-78
2023/08/27 02:08:27;;;;;;;15.57;14.43;;;16.70;99.90;;;;;;5000676;28;20588;-78
2023/08/27 02:10:55;;;;;;;14.83;13.80;;;16.70;99.90;;;;;;5004255;28;20710;-78
2023/08/27 02:13:22;;;;;;;15.80;14.60;;;16.70;99.90;;;;;;5012776;28;20201;-78
2023/08/27 02:15:49;;;;;;;14.87;13.90;;;16.70;99.90;;;;;;5004237;28;20232;-78
2023/08/27 02:18:16;;;;;;;15.27;14.27;;;16.70;99.90;;;;;;5006097;28;20205;-78
2023/08/27 02:20:43;;;;;;;15.57;14.30;;;16.80;99.90;;;;;;5002440;28;20229;-79
2023/08/27 02:23:10;;;;;;;14.53;13.53;;;16.80;99.90;;;;;;5012008;28;20339;-78
2023/08/27 02:25:37;;;;;;;15.50;14.40;;;16.80;99.90;;;;;;5006670;28;20210;-78
2023/08/27 02:28:05;;;;;;;15.30;14.30;;;16.80;99.90;;;;;;5005270;28;20193;-78
2023/08/27 02:30:32;;;;;;;15.27;14.27;;;16.80;99.90;;;;;;5010832;28;20598;-77
2023/08/27 02:33:00;;;;;;;14.83;13.83;;;16.80;99.90;;;;;;5008210;28;20231;-78
2023/08/27 02:35:27;;;;;;;14.43;13.47;;;16.80;99.90;;;;;;5008781;28;20681;-78
2023/08/27 02:37:53;;;;;;;14.97;13.87;;;16.80;99.90;;;;;;5004923;28;20255;-78
2023/08/27 02:40:20;;;;;;;15.80;14.70;;;16.80;99.90;;;;;;5005230;28;20224;-77
2023/08/27 02:42:48;;;;;;;16.07;14.87;;;16.90;99.90;;;;;;5010738;28;20201;-77
2023/08/27 02:45:19;;;;;;;17.10;15.53;;;16.90;99.90;;;;;;5005511;28;20205;-78
2023/08/27 02:47:47;;;;;;;18.07;16.63;;;16.80;99.90;;;;;;5008384;28;20204;-78
2023/08/27 02:50:16;;;;;;;17.40;16.20;;;16.80;99.90;;;;;;5010519;28;20219;-78
2023/08/27 02:52:42;;;;;;;17.77;16.37;;;16.80;99.90;;;;;;5015030;28;20299;-78
2023/08/27 02:55:09;;;;;;;17.47;16.07;;;16.80;99.90;;;;;;5017799;28;20201;-78
2023/08/27 02:57:36;;;;;;;18.37;16.97;;;16.80;99.90;;;;;;5010829;28;20251;-78
2023/08/27 03:00:04;;;;;;;18.23;16.83;;;16.80;99.90;;;;;;5005142;28;20232;-78
2023/08/27 03:02:34;;;;;;;17.20;15.80;;;16.80;99.90;;;;;;5011306;28;20196;-77
2023/08/27 03:05:04;;;;;;;14.90;13.90;;;16.80;99.90;;;;;;5003021;28;20201;-79
2023/08/27 03:07:31;;;;;;;15.53;14.33;;;16.80;99.90;;;;;;5013524;28;20223;-77
2023/08/27 03:09:59;;;;;;;15.20;14.20;;;16.80;99.90;;;;;;5004543;28;20239;-78
2023/08/27 03:12:26;;;;;;;14.00;13.00;;;16.70;99.90;;;;;;5011813;28;20212;-77
2023/08/27 03:14:53;;;;;;;15.63;14.37;;;16.70;99.90;;;;;;5011881;28;20223;-77
2023/08/27 03:17:20;;;;;;;14.43;13.53;;;16.70;99.90;;;;;;5016769;28;20211;-77
2023/08/27 03:19:48;;;;;;;15.23;14.13;;;16.70;99.90;;;;;;5010894;28;20238;-77
2023/08/27 03:22:15;;;;;;;15.60;14.47;;;16.70;99.90;;;;;;5015650;28;20200;-77
2023/08/27 03:24:42;;;;;;;15.77;14.57;;;16.60;99.90;;;;;;5011792;28;20200;-77
2023/08/27 03:27:09;;;;;;;14.93;13.93;;;16.60;99.90;;;;;;5010673;28;20192;-78
2023/08/27 03:29:36;;;;;;;14.77;13.70;;;16.50;99.90;;;;;;5012155;28;20223;-77
2023/08/27 03:32:03;;;;;;;15.17;14.10;;;16.50;99.90;;;;;;5011217;28;20247;-77
2023/08/27 03:34:30;;;;;;;14.50;13.53;;;16.50;99.90;;;;;;5010880;28;20295;-76
2023/08/27 03:36:58;;;;;;;14.57;13.57;;;16.50;99.90;;;;;;5013902;28;20193;-77
2023/08/27 03:39:25;;;;;;;14.83;13.73;;;16.50;99.90;;;;;;5010252;28;20247;-77
2023/08/27 03:41:52;;;;;;;14.53;13.53;;;16.50;99.90;;;;;;5007961;28;22074;-78
2023/08/27 03:44:19;;;;;;;14.40;13.47;;;16.60;99.90;;;;;;5005203;28;20744;-78
2023/08/27 03:46:46;;;;;;;14.90;13.90;;;16.50;99.90;;;;;;5010889;28;20189;-78
2023/08/27 03:49:13;;;;;;;14.80;13.80;;;16.60;99.90;;;;;;5007052;28;20657;-78
2023/08/27 03:51:39;;;;;;;13.60;12.70;;;16.60;99.90;;;;;;5007159;28;20370;-78
2023/08/27 03:54:08;;;;;;;14.87;13.77;;;16.60;99.90;;;;;;5010662;28;20220;-82
2023/08/27 03:56:35;;;;;;;15.00;14.00;;;16.50;99.90;;;;;;5010304;28;20207;-79
2023/08/27 03:59:13;;;;;;;15.83;14.63;;;16.60;99.90;;;;;;5011128;28;20231;-78
2023/08/27 04:01:40;;;;;;;14.63;13.63;;;16.60;99.90;;;;;;5019200;28;20709;-79
2023/08/27 04:04:07;;;;;;;14.90;13.90;;;16.60;99.90;;;;;;5015059;28;20204;-79
2023/08/27 04:06:33;;;;;;;15.40;14.40;;;16.60;99.90;;;;;;5011787;28;20228;-79
2023/08/27 04:09:00;;;;;;;15.13;14.23;;;16.60;99.90;;;;;;4998700;28;20235;-79
2023/08/27 04:11:28;;;;;;;15.33;14.33;;;16.60;99.90;;;;;;5007074;28;20259;-80
2023/08/27 04:13:56;;;;;;;14.30;13.40;;;16.60;99.90;;;;;;5012397;28;20698;-79
2023/08/27 04:16:22;;;;;;;15.13;14.13;;;16.60;99.90;;;;;;5012520;28;20204;-79
2023/08/27 04:18:49;;;;;;;14.60;13.70;;;16.70;99.90;;;;;;5009105;28;20221;-79
2023/08/27 04:21:16;;;;;;;15.23;14.23;;;16.70;99.90;;;;;;5003535;28;20695;-80
2023/08/27 04:23:43;;;;;;;14.90;13.90;;;16.70;99.90;;;;;;5009271;28;20292;-80
2023/08/27 04:26:10;;;;;;;14.47;13.47;;;16.70;99.90;;;;;;4999510;28;20248;-80
2023/08/27 04:28:38;;;;;;;14.97;13.97;;;16.70;99.90;;;;;;5007987;28;20660;-77
2023/08/27 04:31:05;;;;;;;15.67;14.67;;;16.60;99.90;;;;;;5007558;28;20198;-77
2023/08/27 04:33:32;;;;;;;14.50;13.60;;;16.70;99.90;;;;;;5015173;28;20639;-77
2023/08/27 04:35:59;;;;;;;14.70;13.77;;;16.70;99.90;;;;;;5011099;28;20675;-77
2023/08/27 04:38:25;;;;;;;14.43;13.53;;;16.70;99.90;;;;;;5010594;28;20738;-76
2023/08/27 04:40:52;;;;;;;13.97;13.13;;;16.70;99.90;;;;;;5005597;28;20196;-76
2023/08/27 04:43:21;;;;;;;13.77;12.87;;;16.70;99.90;;;;;;5009342;28;20296;-76
2023/08/27 04:45:49;;;;;;;13.17;12.37;;;16.70;99.90;;;;;;5005783;28;20249;-76
2023/08/27 04:48:16;;;;;;;13.50;12.63;;;16.60;99.90;;;;;;5005896;28;20196;-75
2023/08/27 04:50:45;;;;;;;14.63;13.53;;;16.70;99.90;;;;;;5006382;28;20294;-75
2023/08/27 04:53:12;;;;;;;15.07;14.07;;;16.70;99.90;;;;;;5007981;28;20221;-76
2023/08/27 04:55:39;;;;;;;15.20;14.20;;;16.70;99.90;;;;;;5011221;28;20622;-78
2023/08/27 04:58:08;;;;;;;15.03;13.97;;;16.70;99.90;;;;;;5006276;28;20676;-79
2023/08/27 05:00:35;;;;;;;15.20;14.10;;;16.70;99.90;;;;;;5021830;28;20217;-78
2023/08/27 05:03:04;;;;;;;14.53;13.53;;;16.70;99.90;;;;;;5016624;28;20200;-77
2023/08/27 05:05:31;;;;;;;14.77;13.67;;;16.70;99.90;;;;;;5000870;28;20687;-77
2023/08/27 05:07:57;;;;;;;14.93;13.93;;;16.70;99.90;;;;;;5016162;28;20209;-77
2023/08/27 05:10:24;;;;;;;15.00;14.00;;;16.70;99.90;;;;;;5012724;28;20248;-80
2023/08/27 05:12:51;;;;;;;15.13;14.10;;;16.80;99.90;;;;;;5006690;28;20217;-76
2023/08/27 05:15:20;;;;;;;14.53;13.63;;;16.80;99.90;;;;;;5002173;28;20681;-76
2023/08/27 05:17:48;;;;;;;14.60;13.60;;;16.80;99.90;;;;;;4999296;28;20198;-78
2023/08/27 05:20:17;;;;;;;14.40;13.50;;;16.90;99.90;;;;;;4995903;28;20233;-75
2023/08/27 05:22:44;;;;;;;14.10;13.20;;;16.90;99.90;;;;;;4998151;28;20198;-75
2023/08/27 05:25:11;;;;;;;13.83;12.93;;;16.90;99.90;;;;;;5001726;28;20702;-75
2023/08/27 05:27:43;;;;;;;13.03;12.13;;;16.90;99.90;;;;;;4997206;28;20201;-75
2023/08/27 05:30:12;;;;;;;13.57;12.67;;;17.00;99.90;;;;;;5003900;28;20213;-78
2023/08/27 05:32:39;;;;;;;13.17;12.37;;;17.00;99.90;;;;;;4998976;28;20245;-77
2023/08/27 05:35:09;;;;;;;12.87;12.10;;;17.00;99.90;;;;;;5002900;28;20255;-78
2023/08/27 05:37:37;;;;;;;13.33;12.53;;;17.00;99.90;;;;;;4997348;28;20208;-77
2023/08/27 05:40:06;;;;;;;13.27;12.37;;;17.00;99.90;;;;;;5005548;28;20707;-78
2023/08/27 05:42:33;;;;;;;13.60;12.73;;;17.00;99.90;;;;;;5003608;28;20204;-77
2023/08/27 05:45:00;;;;;;;12.97;12.00;;;17.00;99.90;;;;;;5001660;28;20240;-77
2023/08/27 05:47:27;;;;;;;13.23;12.43;;;17.00;99.90;;;;;;5002423;28;20217;-78
2023/08/27 05:49:54;;;;;;;13.07;12.30;;;17.00;99.90;;;;;;4999436;28;20227;-77
2023/08/27 05:52:22;;;;;;;13.67;12.77;;;17.00;99.90;;;;;;4996259;28;20224;-78
2023/08/27 05:54:51;;;;;;;13.00;12.00;;;17.00;99.90;;;;;;4997547;28;20205;-77
2023/08/27 05:57:17;;;;;;;12.77;11.87;;;17.00;99.90;;;;;;5003519;28;20209;-78
2023/08/27 05:59:44;;;;;;;12.97;12.13;;;17.10;99.90;;;;;;4998948;28;20221;-77
2023/08/27 06:02:14;;;;;;;13.20;12.40;;;17.10;99.90;;;;;;5003394;28;20742;-78
2023/08/27 06:04:42;;;;;;;13.47;12.67;;;17.20;99.90;;;;;;5011278;28;20287;-74
2023/08/27 06:07:10;;;;;;;12.87;12.07;;;17.30;99.90;;;;;;5003883;28;20220;-78
2023/08/27 06:09:37;;;;;;;12.90;12.10;;;17.30;99.90;;;;;;5011987;28;20228;-78
2023/08/27 06:12:06;;;;;;;14.00;13.10;;;17.40;99.90;;;;;;5014385;28;20203;-77
2023/08/27 06:14:34;;;;;;;13.60;12.70;;;17.50;99.90;;;;;;5005859;28;20196;-78
2023/08/27 06:17:01;;;;;;;13.60;12.70;;;17.50;99.90;;;;;;5005068;28;20193;-78
2023/08/27 06:19:28;;;;;;;13.90;13.00;;;17.60;99.90;;;;;;5010185;28;20750;-79
2023/08/27 06:21:56;;;;;;;13.47;12.57;;;17.70;99.90;;;;;;5018013;28;20267;-79
2023/08/27 06:24:23;;;;;;;12.97;12.17;;;17.70;99.90;;;;;;5011953;28;20249;-78
2023/08/27 06:26:49;;;;;;;12.20;11.50;;;17.70;99.90;;;;;;5002002;28;20227;-79
2023/08/27 06:29:18;;;;;;;12.30;11.60;;;17.70;99.90;;;;;;5007378;28;20226;-79
2023/08/27 06:31:45;;;;;;;5.00;4.60;;;17.90;99.90;;;;;;5004552;28;20719;-80
2023/08/27 06:34:13;;;;;;;4.60;4.20;;;18.00;99.90;;;;;;5009483;28;20680;-79
2023/08/27 06:36:40;;;;;;;11.80;11.03;;;18.00;99.90;;;;;;5010934;28;20199;-79
2023/08/27 06:39:07;;;;;;;4.13;3.77;;;18.10;99.90;;;;;;5005913;28;20223;-79
2023/08/27 06:41:34;;;;;;;11.57;10.87;;;18.20;99.90;;;;;;5004791;28;20757;-79
2023/08/27 06:44:08;;;;;;;4.40;4.00;;;18.20;99.90;;;;;;5003551;28;20253;-79
2023/08/27 06:46:39;;;;;;;4.53;4.13;;;18.30;99.90;;;;;;5008806;28;20583;-78
2023/08/27 06:49:05;;;;;;;8.20;7.60;;;18.30;99.90;;;;;;4995231;28;20223;-79
2023/08/27 06:51:32;;;;;;;10.13;9.53;;;18.30;99.90;;;;;;5000022;28;20200;-78
2023/08/27 06:54:00;;;;;;;3.90;3.60;;;18.30;99.90;;;;;;4999380;28;20243;-79
2023/08/27 06:56:27;;;;;;;4.60;4.20;;;18.40;99.90;;;;;;4994083;28;20204;-79
2023/08/27 06:58:54;;;;;;;4.00;3.70;;;18.30;99.90;;;;;;4996375;28;20215;-79
2023/08/27 07:01:21;;;;;;;3.97;3.50;;;18.20;99.90;;;;;;4992937;28;20228;-79
2023/08/27 07:03:49;;;;;;;5.53;5.10;;;18.20;99.90;;;;;;5004747;28;20199;-79
2023/08/27 07:06:16;;;;;;;4.73;4.33;;;18.20;99.90;;;;;;4999730;28;20553;-79
2023/08/27 07:08:43;;;;;;;4.50;4.20;;;18.20;99.90;;;;;;4998959;28;20201;-79
2023/08/27 07:11:10;;;;;;;4.60;4.20;;;18.10;99.90;;;;;;4997504;28;20226;-79
2023/08/27 07:13:37;;;;;;;4.50;4.20;;;18.10;99.90;;;;;;5000127;28;20225;-79
2023/08/27 07:16:05;;;;;;;4.33;4.03;;;18.10;99.90;;;;;;5011999;28;20271;-79
2023/08/27 07:18:31;;;;;;;4.60;4.30;;;18.10;99.90;;;;;;5005905;28;20211;-79
2023/08/27 07:21:00;;;;;;;6.37;5.87;;;18.20;99.90;;;;;;5006920;28;20216;-79
2023/08/27 07:23:27;;;;;;;7.33;6.83;;;18.20;99.90;;;;;;5004849;28;20206;-79
2023/08/27 07:25:54;;;;;;;7.30;6.80;;;18.10;99.90;;;;;;5009257;28;20193;-80
2023/08/27 07:28:21;;;;;;;5.17;4.87;;;18.20;99.90;;;;;;5003718;28;20259;-79
2023/08/27 07:30:50;;;;;;;6.30;5.90;;;18.20;99.90;;;;;;4999012;28;20702;-79
2023/08/27 07:33:17;;;;;;;7.70;7.10;;;18.20;99.90;;;;;;5015510;28;20248;-78
2023/08/27 07:35:44;;;;;;;6.70;6.30;;;18.20;99.90;;;;;;4997878;28;20224;-79
2023/08/27 07:38:12;;;;;;;6.40;6.00;;;18.20;99.90;;;;;;5001401;28;20624;-79
2023/08/27 07:40:39;;;;;;;6.17;5.77;;;18.20;99.90;;;;;;4993775;28;20275;-79
2023/08/27 07:43:06;;;;;;;4.50;4.10;;;18.20;99.90;;;;;;4995963;28;20202;-78
2023/08/27 07:45:34;;;;;;;5.50;5.10;;;18.20;99.90;;;;;;5002331;28;20295;-79
2023/08/27 07:48:01;;;;;;;4.10;3.80;;;18.20;99.90;;;;;;5009458;28;20209;-79
2023/08/27 07:50:28;;;;;;;4.17;3.87;;;18.40;99.90;;;;;;5016120;28;20218;-79
2023/08/27 07:52:55;;;;;;;4.23;3.93;;;18.40;99.90;;;;;;5006414;28;20195;-79
2023/08/27 07:55:24;;;;;;;9.20;8.60;;;18.60;99.90;;;;;;5002298;28;20208;-79
2023/08/27 07:57:51;;;;;;;8.17;7.67;;;18.70;99.90;;;;;;5009689;28;20200;-79
2023/08/27 08:00:20;;;;;;;9.30;8.70;;;18.80;99.90;;;;;;4995017;28;20228;-79
2023/08/27 08:02:47;;;;;;;5.67;5.27;;;18.80;99.90;;;;;;5000424;28;20204;-79
2023/08/27 08:05:14;;;;;;;9.23;8.60;;;18.80;99.90;;;;;;5009113;28;20204;-78
2023/08/27 08:07:42;;;;;;;10.03;9.43;;;18.90;99.90;;;;;;5011312;28;20582;-80
2023/08/27 08:10:09;;;;;;;9.90;9.30;;;18.90;99.90;;;;;;5005239;28;20650;-79
2023/08/27 08:12:37;;;;;;;3.20;2.90;;;18.90;99.90;;;;;;5006997;28;20200;-81
2023/08/27 08:15:05;;;;;;;8.60;8.00;;;18.90;99.90;;;;;;5002475;28;20263;-80
2023/08/27 08:17:31;;;;;;;9.00;8.50;;;18.90;99.90;;;;;;5006246;28;20263;-80
2023/08/27 08:19:59;;;;;;;4.03;3.63;;;19.00;99.90;;;;;;5007884;28;20231;-80
2023/08/27 08:22:26;;;;;;;3.47;3.17;;;19.00;99.90;;;;;;5000964;28;20219;-78
2023/08/27 08:24:53;;;;;;;6.40;6.00;;;19.00;99.90;;;;;;5003228;28;20193;-80
2023/08/27 08:27:20;;;;;;;9.63;9.03;;;18.90;99.90;;;;;;5008125;28;20200;-78
2023/08/27 08:29:48;;;;;;;6.17;5.77;;;18.80;99.90;;;;;;5006152;28;20231;-79
2023/08/27 08:32:15;;;;;;;3.10;2.90;;;18.70;99.90;;;;;;5011229;28;20207;-79
2023/08/27 08:34:42;;;;;;;3.23;2.90;;;18.60;99.90;;;;;;5007116;28;20899;-81
2023/08/27 08:37:09;;;;;;;3.50;3.20;;;18.50;99.90;;;;;;5006090;28;20191;-79
2023/08/27 08:39:36;;;;;;;7.57;7.07;;;18.50;99.90;;;;;;5007180;28;20220;-79
2023/08/27 08:42:13;;;;;;;10.53;9.83;;;18.40;99.90;;;;;;5003383;28;20195;-80
2023/08/27 08:44:46;;;;;;;10.20;9.60;;;18.50;99.90;;;;;;5012511;28;20193;-79
2023/08/27 08:47:17;;;;;;;4.33;3.17;;;18.50;99.90;;;;;;5014335;28;20643;-79
2023/08/27 08:49:45;;;;;;;3.97;3.20;;;18.70;99.90;;;;;;5009109;28;20230;-80
2023/08/27 08:52:17;;;;;;;3.53;3.23;;;18.70;99.90;;;;;;5016471;28;20194;-80
2023/08/27 08:54:46;;;;;;;5.27;4.90;;;18.80;99.90;;;;;;5018015;28;20320;-79
2023/08/27 08:57:15;;;;;;;3.33;3.10;;;19.00;99.90;;;;;;5010816;28;20302;-80
2023/08/27 08:59:42;;;;;;;3.10;2.90;;;19.20;99.90;;;;;;5021630;28;20216;-80
2023/08/27 09:02:12;;;;;;;3.33;3.10;;;19.20;99.90;;;;;;5026205;28;20822;-80
2023/08/27 09:04:41;;;;;;;8.50;7.93;;;19.40;99.90;;;;;;5013341;28;20193;-80
2023/08/27 09:07:08;;;;;;;3.80;3.50;;;19.50;99.90;;;;;;5005660;28;20663;-80
2023/08/27 09:09:36;;;;;;;9.40;8.73;;;19.60;99.90;;;;;;5009673;28;20727;-81
2023/08/27 09:12:08;;;;;;;9.13;8.53;;;19.60;99.90;;;;;;5004496;28;20207;-82
2023/08/27 09:14:47;;;;;;;8.13;7.63;;;19.80;99.90;;;;;;5011486;28;20239;-84
2023/08/27 09:20:25;;;;;;;8.90;8.40;;;19.80;99.90;;;;;;5001131;28;20233;-82
2023/08/27 09:23:01;;;;;;;8.10;7.50;;;19.90;99.90;;;;;;5000634;28;20207;-79
2023/08/27 09:25:38;;;;;;;10.07;9.47;;;20.00;99.90;;;;;;5006616;28;20667;-78
2023/08/27 09:28:06;;;;;;;5.50;5.10;;;20.10;99.90;;;;;;5008129;28;20566;-78
2023/08/27 09:30:33;;;;;;;5.93;5.43;;;20.10;99.90;;;;;;5016877;28;20209;-78
2023/08/27 09:33:02;;;;;;;5.50;5.00;;;20.20;99.90;;;;;;5008342;28;20283;-77
2023/08/27 09:35:38;;;;;;;6.17;5.77;;;20.30;99.90;;;;;;5022772;28;20223;-78
2023/08/27 09:38:05;;;;;;;7.93;7.23;;;20.40;99.90;;;;;;5007588;28;20288;-78
2023/08/27 09:40:33;;;;;;;5.43;5.03;;;20.40;99.90;;;;;;5010921;28;20270;-78
2023/08/27 09:43:07;;;;;;;9.00;8.40;;;20.50;99.90;;;;;;5021754;28;20208;-78
2023/08/27 09:45:34;;;;;;;5.17;4.77;;;20.70;99.90;;;;;;5011347;28;20671;-78
2023/08/27 09:48:01;;;;;;;5.50;5.10;;;20.70;99.90;;;;;;5008923;28;20659;-78
2023/08/27 09:50:29;;;;;;;9.50;8.90;;;20.80;99.90;;;;;;5014172;28;20255;-79
2023/08/27 09:53:07;;;;;;;9.77;9.07;;;21.00;99.90;;;;;;5008940;28;20205;-78
2023/08/27 09:55:35;;;;;;;5.27;4.87;;;21.00;99.90;;;;;;5005290;28;20213;-78
2023/08/27 09:58:03;;;;;;;5.53;5.13;;;20.90;99.90;;;;;;5007143;28;20200;-78
2023/08/27 10:00:31;;;;;;;5.67;5.17;;;20.80;99.90;;;;;;5058338;23;20223;-76
2023/08/27 10:02:58;;;;;;;5.43;4.93;;;20.70;99.90;;;;;;5051113;28;20188;-75
2023/08/27 10:05:30;;;;;;;4.97;4.67;;;20.60;99.90;;;;;;5049998;28;20198;-75
2023/08/27 10:07:58;;;;;;;4.60;4.30;;;20.50;99.90;;;;;;5053736;28;20206;-75
2023/08/27 10:10:27;;;;;;;4.40;4.10;;;20.40;99.90;;;;;;5050989;28;20221;-75
2023/08/27 10:12:54;;;;;;;5.20;4.90;;;20.40;99.90;;;;;;5058496;28;20191;-76
2023/08/27 10:15:21;;;;;;;4.30;4.00;;;20.30;99.90;;;;;;5059014;28;20219;-75
2023/08/27 10:17:48;;;;;;;4.67;4.27;;;20.40;99.90;;;;;;5049322;28;20677;-75
2023/08/27 10:20:17;;;;;;;4.77;4.30;;;20.40;99.90;;;;;;5058485;28;20223;-76
2023/08/27 10:22:45;;;;;;;4.40;4.10;;;20.50;99.90;;;;;;5060313;28;20191;-76
2023/08/27 10:25:15;;;;;;;4.53;4.23;;;20.40;99.90;;;;;;5057022;28;20397;-75
2023/08/27 10:27:45;;;;;;;4.53;4.23;;;20.40;99.90;;;;;;5061276;28;20270;-75
2023/08/27 10:30:14;;;;;;;4.63;4.27;;;20.50;99.90;;;;;;5058878;28;20250;-75
2023/08/27 10:32:41;;;;;;;4.70;4.30;;;20.60;99.90;;;;;;5050196;28;20199;-76
2023/08/27 10:35:09;;;;;;;4.40;4.10;;;20.70;99.90;;;;;;5059323;28;20646;-76
2023/08/27 10:37:39;;;;;;;4.53;4.20;;;20.70;99.90;;;;;;5059464;28;20199;-75
2023/08/27 10:40:08;;;;;;;4.63;4.23;;;20.80;99.90;;;;;;5056588;28;20215;-76
2023/08/27 10:42:37;;;;;;;4.53;4.20;;;20.90;99.90;;;;;;5050213;28;20677;-76
2023/08/27 10:45:12;;;;;;;4.70;4.30;;;20.80;99.90;;;;;;5059061;28;20195;-75
2023/08/27 10:47:39;;;;;;;4.43;4.13;;;20.70;99.90;;;;;;5058926;28;20198;-76
2023/08/27 10:50:08;;;;;;;6.27;5.87;;;20.80;99.90;;;;;;5059281;28;20211;-75
2023/08/27 10:52:49;;;;;;;7.13;6.53;;;20.80;99.90;;;;;;5058752;28;20199;-75
2023/08/27 10:55:16;;;;;;;7.00;6.50;;;20.80;99.90;;;;;;5056833;28;20211;-76
2023/08/27 10:57:43;;;;;;;6.13;5.73;;;20.80;99.90;;;;;;5057338;28;20566;-75
2023/08/27 11:00:12;;;;;;;4.23;3.93;;;20.80;99.90;;;;;;5058488;28;20230;-75
2023/08/27 11:03:13;;;;;;;4.70;4.30;;;20.80;99.90;;;;;;5040382;28;20195;-75
2023/08/27 11:05:40;;;;;;;4.57;4.17;;;20.90;99.90;;;;;;5013511;28;20253;-75
2023/08/27 11:08:14;;;;;;;4.37;4.07;;;20.90;99.90;;;;;;5057616;28;20222;-75
2023/08/27 11:10:41;;;;;;;4.77;4.37;;;20.90;99.90;;;;;;5056868;28;20598;-75
2023/08/27 11:13:27;;;;;;;5.07;4.20;;;20.90;99.90;;;;;;5057659;28;20237;-74
2023/08/27 11:15:56;;;;;;;4.60;4.23;;;20.90;99.90;;;;;;5057304;28;20207;-76
2023/08/27 11:18:23;;;;;;;7.20;6.73;;;21.10;99.90;;;;;;5040274;28;20196;-76
2023/08/27 11:20:51;;;;;;;4.50;4.20;;;21.10;99.90;;;;;;5050605;28;20223;-75
2023/08/27 11:23:18;;;;;;;9.20;8.60;;;21.20;99.90;;;;;;5054226;28;20207;-75
2023/08/27 11:25:46;;;;;;;4.40;4.10;;;21.30;99.90;;;;;;5054896;28;20199;-75
2023/08/27 11:28:13;;;;;;;9.80;9.20;;;21.50;99.90;;;;;;5056418;28;20203;-75
2023/08/27 11:30:40;;;;;;;9.00;8.30;;;21.70;99.90;;;;;;5053411;28;20219;-76
2023/08/27 11:33:14;;;;;;;4.70;4.27;;;21.70;99.90;;;;;;5054424;28;20275;-76
2023/08/27 11:35:41;;;;;;;6.80;6.30;;;21.70;99.90;;;;;;5055220;28;20219;-76
2023/08/27 11:38:10;;;;;;;7.13;6.70;;;21.70;99.90;;;;;;5054400;28;20192;-75
2023/08/27 11:40:37;;;;;;;8.37;7.83;;;21.70;99.90;;;;;;5054596;28;20261;-76
2023/08/27 11:43:04;;;;;;;8.97;8.40;;;21.70;99.90;;;;;;5054992;28;20222;-76
2023/08/27 11:45:31;;;;;;;9.17;8.47;;;21.60;99.90;;;;;;5054563;28;20195;-76
2023/08/27 11:48:03;;;;;;;3.53;3.33;;;21.60;99.90;;;;;;5054455;28;20224;-76
2023/08/27 11:50:32;;;;;;;2.87;2.67;;;21.60;99.90;;;;;;5054721;28;20223;-76
2023/08/27 11:52:59;;;;;;;3.20;2.90;;;21.60;99.90;;;;;;5055328;28;20252;-76
2023/08/27 11:55:26;;;;;;;3.13;2.87;;;21.60;99.90;;;;;;5053262;28;20256;-75
2023/08/27 11:57:53;;;;;;;6.70;6.30;;;21.70;99.90;;;;;;5054198;28;20553;-75
2023/08/27 12:00:20;;;;;;;6.77;6.27;;;21.80;99.90;;;;;;5053459;28;20604;-75
2023/08/27 12:02:47;;;;;;;7.67;7.17;;;21.90;99.90;;;;;;5053506;28;20576;-76
2023/08/27 12:05:14;;;;;;;3.00;2.80;;;22.00;99.90;;;;;;5053540;28;20195;-79
2023/08/27 12:07:43;;;;;;;5.07;4.73;;;22.10;99.90;;;;;;5056334;28;20206;-76
2023/08/27 12:10:10;;;;;;;3.10;2.80;;;22.20;99.90;;;;;;5053253;28;20215;-77
2023/08/27 12:12:39;;;;;;;3.60;3.33;;;22.10;99.90;;;;;;5047767;28;20252;-77
2023/08/27 12:15:08;;;;;;;3.23;2.93;;;22.10;99.90;;;;;;5054303;28;20291;-77
2023/08/27 12:17:37;;;;;;;4.17;3.10;;;22.00;99.90;;;;;;5045256;28;20282;-77
2023/08/27 12:20:07;;;;;;;4.47;3.63;;;22.00;99.90;;;;;;5053564;28;20272;-81
2023/08/27 12:22:43;;;;;;;7.60;7.10;;;22.00;99.90;;;;;;5046668;28;20203;-76
2023/08/27 12:25:11;;;;;;;4.53;4.23;;;21.80;99.90;;;;;;5063058;28;20572;-77
2023/08/27 12:27:40;;;;;;;4.30;3.90;;;21.70;99.90;;;;;;5050894;28;20302;-77
2023/08/27 12:30:09;;;;;;;9.30;8.43;;;21.70;99.90;;;;;;5053139;28;20221;-77
2023/08/27 12:32:36;;;;;;;8.60;8.10;;;21.60;99.90;;;;;;5065213;28;20290;-78
2023/08/27 12:35:02;;;;;;;8.50;7.90;;;21.60;99.90;;;;;;5037086;28;20648;-77
2023/08/27 12:37:29;;;;;;;8.10;7.60;;;21.60;99.90;;;;;;5039460;28;20603;-77
2023/08/27 12:39:57;;;;;;;8.17;7.60;;;21.60;99.90;;;;;;5037416;28;20253;-77
2023/08/27 12:42:26;;;;;;;8.83;8.23;;;21.60;99.90;;;;;;5039751;28;20206;-77
2023/08/27 12:44:53;;;;;;;7.53;7.03;;;21.50;99.90;;;;;;5054084;28;20605;-77